FDX25 PHNL-PHOG
Flight info
| Callsign | FDX25 |
|---|---|
| Flight time | 0h 22m |
| Altitude | 13000 |
| Route | PALAY3 LNY CAMPS4 |
| Aircraft | B738/M-SDE2E3FGHIRWXY/LB1 |
Departure
| Time | 2026-04-22 18:43 |
|---|---|
| Airport | Daniel K. Inouye International Airport (PHNL) |
Arrival
| Time | 2026-04-22 19:05 |
|---|---|
| Airport | Kahului International Airport (PHOG) |
| Time | Latitude | Longitude | Altitude | Speed | Heading |
|---|---|---|---|---|---|
| 2026-04-22 18:03 | 21.31542 | -157.92025 | 14 ft | 0 kts | 144° |
| 2026-04-22 18:30 | 21.31544 | -157.92027 | 14 ft | 3 kts | 144° |
| 2026-04-22 18:30 | 21.31565 | -157.92044 | 17 ft | 4 kts | 143° |
| 2026-04-22 18:31 | 21.31586 | -157.92061 | 16 ft | 4 kts | 146° |
| 2026-04-22 18:31 | 21.31610 | -157.92074 | 16 ft | 4 kts | 167° |
| 2026-04-22 18:31 | 21.31634 | -157.92073 | 15 ft | 4 kts | 210° |
| 2026-04-22 18:31 | 21.31645 | -157.92065 | 14 ft | 1 kts | 231° |
| 2026-04-22 18:34 | 21.31610 | -157.92114 | 15 ft | 15 kts | 234° |
| 2026-04-22 18:34 | 21.31546 | -157.92204 | 13 ft | 15 kts | 232° |
| 2026-04-22 18:34 | 21.31485 | -157.92293 | 12 ft | 15 kts | 233° |
| 2026-04-22 18:34 | 21.31424 | -157.92378 | 13 ft | 14 kts | 232° |
| 2026-04-22 18:35 | 21.31367 | -157.92460 | 12 ft | 13 kts | 233° |
| 2026-04-22 18:35 | 21.31312 | -157.92538 | 14 ft | 13 kts | 233° |
| 2026-04-22 18:35 | 21.31238 | -157.92567 | 15 ft | 13 kts | 156° |
| 2026-04-22 18:35 | 21.31173 | -157.92506 | 16 ft | 12 kts | 134° |
| 2026-04-22 18:36 | 21.31110 | -157.92444 | 17 ft | 12 kts | 138° |
| 2026-04-22 18:36 | 21.31049 | -157.92385 | 17 ft | 12 kts | 138° |
| 2026-04-22 18:36 | 21.30977 | -157.92371 | 18 ft | 11 kts | 212° |
| 2026-04-22 18:36 | 21.30961 | -157.92424 | 18 ft | 7 kts | 283° |
| 2026-04-22 18:37 | 21.30970 | -157.92486 | 18 ft | 10 kts | 271° |
| 2026-04-22 18:37 | 21.30969 | -157.92568 | 19 ft | 16 kts | 269° |
| 2026-04-22 18:37 | 21.30969 | -157.92694 | 19 ft | 18 kts | 269° |
| 2026-04-22 18:37 | 21.30971 | -157.92875 | 16 ft | 30 kts | 270° |
| 2026-04-22 18:38 | 21.30970 | -157.93095 | 17 ft | 29 kts | 270° |
| 2026-04-22 18:38 | 21.30969 | -157.93303 | 16 ft | 27 kts | 270° |
| 2026-04-22 18:38 | 21.30969 | -157.93497 | 16 ft | 25 kts | 270° |
| 2026-04-22 18:39 | 21.30969 | -157.93848 | 18 ft | 22 kts | 270° |
| 2026-04-22 18:39 | 21.30969 | -157.94014 | 19 ft | 22 kts | 269° |
| 2026-04-22 18:39 | 21.30970 | -157.94174 | 20 ft | 21 kts | 270° |
| 2026-04-22 18:39 | 21.30969 | -157.94331 | 18 ft | 21 kts | 270° |
| 2026-04-22 18:40 | 21.30971 | -157.94480 | 17 ft | 20 kts | 270° |
| 2026-04-22 18:40 | 21.30928 | -157.94575 | 18 ft | 5 kts | 181° |
| 2026-04-22 18:40 | 21.30918 | -157.94575 | 21 ft | 7 kts | 178° |
| 2026-04-22 18:41 | 21.30819 | -157.94572 | 18 ft | 26 kts | 178° |
| 2026-04-22 18:41 | 21.30792 | -157.94572 | 17 ft | 0 kts | 180° |
| 2026-04-22 18:41 | 21.30713 | -157.94565 | 17 ft | 16 kts | 156° |
| 2026-04-22 18:42 | 21.30679 | -157.94484 | 20 ft | 12 kts | 86° |
| 2026-04-22 18:42 | 21.30682 | -157.94195 | 22 ft | 78 kts | 90° |
| 2026-04-22 18:42 | 21.30681 | -157.93320 | 17 ft | 153 kts | 90° |
| 2026-04-22 18:42 | 21.30690 | -157.92028 | 397 ft | 186 kts | 89° |
| 2026-04-22 18:43 | 21.30597 | -157.90635 | 1470 ft | 188 kts | 104° |
| 2026-04-22 18:43 | 21.29942 | -157.89478 | 2703 ft | 184 kts | 138° |
| 2026-04-22 18:43 | 21.28713 | -157.88849 | 3231 ft | 217 kts | 162° |
| 2026-04-22 18:43 | 21.27135 | -157.88419 | 3402 ft | 254 kts | 164° |
| 2026-04-22 18:44 | 21.25325 | -157.87764 | 3604 ft | 286 kts | 149° |
| 2026-04-22 18:44 | 21.23870 | -157.86403 | 4852 ft | 274 kts | 126° |
| 2026-04-22 18:44 | 21.22859 | -157.84706 | 5870 ft | 276 kts | 118° |
| 2026-04-22 18:44 | 21.21971 | -157.82852 | 6704 ft | 283 kts | 114° |
| 2026-04-22 18:45 | 21.21133 | -157.80931 | 7562 ft | 286 kts | 114° |
| 2026-04-22 18:45 | 21.20291 | -157.78976 | 8400 ft | 292 kts | 114° |
| 2026-04-22 18:45 | 21.19426 | -157.76981 | 9219 ft | 298 kts | 115° |
| 2026-04-22 18:45 | 21.18539 | -157.74952 | 10092 ft | 302 kts | 115° |
| 2026-04-22 18:46 | 21.17624 | -157.72874 | 10639 ft | 318 kts | 115° |
| 2026-04-22 18:46 | 21.16636 | -157.70640 | 10797 ft | 346 kts | 115° |
| 2026-04-22 18:46 | 21.15582 | -157.68265 | 11286 ft | 358 kts | 115° |
| 2026-04-22 18:46 | 21.14502 | -157.65841 | 12029 ft | 360 kts | 114° |
| 2026-04-22 18:47 | 21.13424 | -157.63422 | 12623 ft | 359 kts | 114° |
| 2026-04-22 18:47 | 21.12351 | -157.61015 | 12968 ft | 358 kts | 114° |
| 2026-04-22 18:47 | 21.11263 | -157.58575 | 12979 ft | 365 kts | 114° |
| 2026-04-22 18:47 | 21.10126 | -157.56154 | 12980 ft | 363 kts | 117° |
| 2026-04-22 18:48 | 21.08849 | -157.53818 | 12989 ft | 362 kts | 120° |
| 2026-04-22 18:48 | 21.07534 | -157.51520 | 12989 ft | 362 kts | 120° |
| 2026-04-22 18:48 | 21.06207 | -157.49222 | 12990 ft | 362 kts | 120° |
| 2026-04-22 18:48 | 21.04905 | -157.46956 | 12992 ft | 362 kts | 120° |
| 2026-04-22 18:49 | 21.03588 | -157.44651 | 12988 ft | 362 kts | 120° |
| 2026-04-22 18:49 | 21.02273 | -157.42340 | 12988 ft | 363 kts | 120° |
| 2026-04-22 18:49 | 21.00966 | -157.40035 | 12990 ft | 363 kts | 120° |
| 2026-04-22 18:49 | 20.99654 | -157.37719 | 12993 ft | 363 kts | 120° |
| 2026-04-22 18:50 | 20.98344 | -157.35405 | 12993 ft | 363 kts | 120° |
| 2026-04-22 18:50 | 20.97031 | -157.33086 | 12994 ft | 364 kts | 120° |
| 2026-04-22 18:50 | 20.95723 | -157.30778 | 12987 ft | 359 kts | 120° |
| 2026-04-22 18:50 | 20.94448 | -157.28529 | 12982 ft | 347 kts | 120° |
| 2026-04-22 18:51 | 20.93216 | -157.26360 | 12979 ft | 336 kts | 120° |
| 2026-04-22 18:51 | 20.92012 | -157.24238 | 12985 ft | 333 kts | 120° |
| 2026-04-22 18:51 | 20.90809 | -157.22120 | 12932 ft | 334 kts | 120° |
| 2026-04-22 18:51 | 20.89598 | -157.19989 | 12688 ft | 333 kts | 120° |
| 2026-04-22 18:52 | 20.88410 | -157.17898 | 12349 ft | 334 kts | 120° |
| 2026-04-22 18:52 | 20.87208 | -157.15783 | 11994 ft | 332 kts | 120° |
| 2026-04-22 18:52 | 20.86013 | -157.13683 | 11640 ft | 330 kts | 121° |
| 2026-04-22 18:52 | 20.84823 | -157.11590 | 11265 ft | 328 kts | 121° |
| 2026-04-22 18:53 | 20.83637 | -157.09506 | 10894 ft | 327 kts | 121° |
| 2026-04-22 18:53 | 20.82455 | -157.07430 | 10550 ft | 325 kts | 122° |
| 2026-04-22 18:53 | 20.81297 | -157.05396 | 10397 ft | 316 kts | 122° |
| 2026-04-22 18:53 | 20.80167 | -157.03410 | 10260 ft | 308 kts | 122° |
| 2026-04-22 18:54 | 20.79069 | -157.01483 | 10122 ft | 300 kts | 122° |
| 2026-04-22 18:54 | 20.77990 | -156.99592 | 9847 ft | 297 kts | 122° |
| 2026-04-22 18:54 | 20.76917 | -156.97713 | 9559 ft | 296 kts | 122° |
| 2026-04-22 18:54 | 20.76036 | -156.95756 | 9194 ft | 298 kts | 108° |
| 2026-04-22 18:55 | 20.75456 | -156.93648 | 8846 ft | 291 kts | 105° |
| 2026-04-22 18:55 | 20.74930 | -156.91579 | 8552 ft | 287 kts | 105° |
| 2026-04-22 18:55 | 20.74405 | -156.89520 | 8248 ft | 288 kts | 105° |
| 2026-04-22 18:55 | 20.73870 | -156.87459 | 7921 ft | 288 kts | 105° |
| 2026-04-22 18:56 | 20.73326 | -156.85397 | 7610 ft | 288 kts | 105° |
| 2026-04-22 18:56 | 20.72779 | -156.83342 | 7296 ft | 287 kts | 105° |
| 2026-04-22 18:56 | 20.72230 | -156.81299 | 6995 ft | 285 kts | 105° |
| 2026-04-22 18:56 | 20.71682 | -156.79266 | 6694 ft | 282 kts | 105° |
| 2026-04-22 18:57 | 20.71144 | -156.77276 | 6370 ft | 274 kts | 105° |
| 2026-04-22 18:57 | 20.70622 | -156.75345 | 6021 ft | 267 kts | 105° |
| 2026-04-22 18:57 | 20.70119 | -156.73491 | 5736 ft | 259 kts | 105° |
| 2026-04-22 18:57 | 20.69618 | -156.71641 | 5465 ft | 258 kts | 105° |
| 2026-04-22 18:58 | 20.69119 | -156.69803 | 5192 ft | 257 kts | 105° |
| 2026-04-22 18:58 | 20.68620 | -156.67968 | 4920 ft | 257 kts | 106° |
| 2026-04-22 18:58 | 20.68127 | -156.66151 | 4768 ft | 250 kts | 106° |
| 2026-04-22 18:58 | 20.67649 | -156.64395 | 4637 ft | 243 kts | 105° |
| 2026-04-22 18:59 | 20.67188 | -156.62691 | 4537 ft | 235 kts | 104° |
| 2026-04-22 18:59 | 20.67184 | -156.61011 | 4422 ft | 225 kts | 68° |
| 2026-04-22 18:59 | 20.68096 | -156.59726 | 4366 ft | 216 kts | 42° |
| 2026-04-22 18:59 | 20.69216 | -156.58629 | 4202 ft | 222 kts | 42° |
| 2026-04-22 19:00 | 20.70406 | -156.57556 | 3981 ft | 224 kts | 38° |
| 2026-04-22 19:00 | 20.71658 | -156.56564 | 3747 ft | 224 kts | 36° |
| 2026-04-22 19:00 | 20.72928 | -156.55606 | 3513 ft | 223 kts | 36° |
| 2026-04-22 19:00 | 20.74201 | -156.54654 | 3270 ft | 223 kts | 36° |
| 2026-04-22 19:01 | 20.75455 | -156.53717 | 3066 ft | 215 kts | 36° |
| 2026-04-22 19:01 | 20.76642 | -156.52827 | 2923 ft | 204 kts | 36° |
| 2026-04-22 19:01 | 20.77775 | -156.51978 | 2700 ft | 198 kts | 36° |
| 2026-04-22 19:01 | 20.78876 | -156.51153 | 2440 ft | 189 kts | 35° |
| 2026-04-22 19:02 | 20.79926 | -156.50365 | 2237 ft | 180 kts | 34° |
| 2026-04-22 19:02 | 20.80914 | -156.49608 | 1997 ft | 169 kts | 34° |
| 2026-04-22 19:02 | 20.81848 | -156.48936 | 1743 ft | 154 kts | 36° |
| 2026-04-22 19:02 | 20.82681 | -156.48292 | 1593 ft | 148 kts | 34° |
| 2026-04-22 19:03 | 20.83534 | -156.47658 | 1402 ft | 148 kts | 34° |
| 2026-04-22 19:03 | 20.84379 | -156.47024 | 1169 ft | 145 kts | 34° |
| 2026-04-22 19:03 | 20.85229 | -156.46407 | 1006 ft | 150 kts | 35° |
| 2026-04-22 19:03 | 20.86075 | -156.45758 | 806 ft | 148 kts | 35° |
| 2026-04-22 19:04 | 20.86922 | -156.45124 | 585 ft | 152 kts | 34° |
| 2026-04-22 19:04 | 20.87774 | -156.44475 | 412 ft | 147 kts | 33° |
| 2026-04-22 19:04 | 20.88582 | -156.43874 | 206 ft | 135 kts | 32° |
| 2026-04-22 19:04 | 20.89304 | -156.43343 | 68 ft | 113 kts | 32° |
| 2026-04-22 19:05 | 20.89849 | -156.42940 | 35 ft | 78 kts | 35° |
| 2026-04-22 19:05 | 20.90171 | -156.42700 | 28 ft | 28 kts | 34° |
| 2026-04-22 19:05 | 20.90329 | -156.42586 | 27 ft | 27 kts | 33° |
| 2026-04-22 19:05 | 20.90471 | -156.42502 | 25 ft | 18 kts | 351° |
| 2026-04-22 19:06 | 20.90499 | -156.42523 | 27 ft | 2 kts | 297° |
| 2026-04-22 19:06 | 20.90496 | -156.42539 | 26 ft | 3 kts | 248° |
| 2026-04-22 19:06 | 20.90489 | -156.42556 | 25 ft | 3 kts | 248° |
| 2026-04-22 19:07 | 20.90426 | -156.42671 | 26 ft | 9 kts | 220° |
| 2026-04-22 19:07 | 20.90371 | -156.42707 | 27 ft | 9 kts | 210° |
| 2026-04-22 19:07 | 20.90324 | -156.42740 | 27 ft | 9 kts | 216° |
| 2026-04-22 19:07 | 20.90275 | -156.42780 | 27 ft | 9 kts | 215° |
| 2026-04-22 19:08 | 20.90192 | -156.42842 | 27 ft | 19 kts | 214° |
| 2026-04-22 19:08 | 20.90080 | -156.42923 | 27 ft | 19 kts | 214° |
| 2026-04-22 19:08 | 20.89972 | -156.43006 | 32 ft | 19 kts | 214° |
| 2026-04-22 19:08 | 20.89871 | -156.43081 | 36 ft | 18 kts | 214° |
| 2026-04-22 19:09 | 20.89786 | -156.43147 | 38 ft | 6 kts | 234° |
| 2026-04-22 19:09 | 20.89785 | -156.43195 | 37 ft | 8 kts | 271° |
| 2026-04-22 19:09 | 20.89785 | -156.43244 | 36 ft | 11 kts | 270° |
| 2026-04-22 19:09 | 20.89780 | -156.43307 | 34 ft | 7 kts | 239° |
| 2026-04-22 19:10 | 20.89742 | -156.43362 | 34 ft | 8 kts | 239° |
| 2026-04-22 19:10 | 20.89702 | -156.43388 | 35 ft | 7 kts | 185° |
| 2026-04-22 19:10 | 20.89663 | -156.43363 | 39 ft | 7 kts | 133° |
| 2026-04-22 19:10 | 20.89619 | -156.43345 | 42 ft | 9 kts | 182° |
| 2026-04-22 19:11 | 20.89508 | -156.43408 | 46 ft | 24 kts | 214° |
| 2026-04-22 19:11 | 20.89374 | -156.43504 | 50 ft | 23 kts | 214° |
| 2026-04-22 19:11 | 20.89244 | -156.43599 | 54 ft | 22 kts | 214° |
| 2026-04-22 19:11 | 20.89120 | -156.43693 | 58 ft | 22 kts | 214° |
| 2026-04-22 19:12 | 20.88999 | -156.43782 | 59 ft | 21 kts | 214° |
| 2026-04-22 19:12 | 20.88926 | -156.43843 | 60 ft | 17 kts | 236° |
| 2026-04-22 19:12 | 20.88948 | -156.43933 | 60 ft | 0 kts | 333° |
| 2026-04-22 19:12 | 20.88953 | -156.43931 | 60 ft | 0 kts | 19° |
| 2026-04-22 19:13 | 20.88954 | -156.43927 | 56 ft | 2 kts | 62° |
| 2026-04-22 19:13 | 20.88952 | -156.43921 | 56 ft | 1 kts | 109° |
| 2026-04-22 19:13 | 20.88940 | -156.43917 | 60 ft | 3 kts | 160° |
| 2026-04-22 19:13 | 20.88932 | -156.43914 | 57 ft | 0 kts | 159° |